Tamanrasset, Algeria
Current Conditions -  °F | °C
As of 9:30 AM on Friday 28 Nov 2014 (Local Time) from DAAT Reporting Station
Clear Clear  
Wind Chill: 64°   Ceiling: Unl
Heat Index: 64°   Visibility: 6mi
Dew Point: 30°   Wind: 13mph
Humidity: 28%   Direction: 180°S
Pressure: 30.12"   Gusts: NA
Location:  22.78°N, 5.52°E
Report Text: DAAT 280830Z 18011KT CAVOK 18/M01 Q1020
Loading
Personal Weather Stations






























Interactive Weather Map New forecast layout! Learn more

10-Day Weather Forecast

Advertisements
Track Severe Weather on mobile